Pacifica, CA (94044)

12:03 PM PDT on June 03, 2015 (GMT -0700)
Sharp Park | | Change Station
CLOSE
Current Station
Personal Weather Station
Location: Pacifica, CA
Elevation: 189 ft
Nearby Weather Stations

Elev 189 ft 37.64 °N, 122.49 °W | Updated 1 minute ago

Overcast
Overcast
60.6 °F
Feels Like 60.6 °F
N
2.0
Wind Variable Wind from WSW
Gusts 7.0 mph

Today
High -- | Low -- °F
--% Chance of Precip.
Yesterday
High -- | Low -- °F
Precip. -- in
5:49 AM 8:27 PM
Full, 99% visible
Pressure 29.96 in
Visibility 10.0 miles
Clouds Few 1200 ft
Mostly Cloudy 1700 ft
Dew Point 54 °F
Humidity 80%
Rainfall 0.00 in
Snow Depth Not available.
UV 6 out of 12
Pollen 6.50 out of 12
Air Quality Not available.
Flu Activity Sporadic
METAR KSFO 031856Z 26014G24KT 10SM FEW012 BKN017 17/10 A2996 RMK AO2 SLP146 T01720100 $

More Conditions Fewer Conditions

Pressure 29.96 in
Visibility 10.0 miles
Clouds Few 1200 ft
Mostly Cloudy 1700 ft
Dew Point 54 °F
Humidity 80%
Rainfall 0.00 in
Snow Depth Not available.
UV 6 out of 12
Pollen 6.50 out of 12
Air Quality Not available.
Flu Activity Sporadic
METAR KSFO 031856Z 26014G24KT 10SM FEW012 BKN017 17/10 A2996 RMK AO2 SLP146 T01720100 $

More Conditions Fewer Conditions

10-Day Weather Forecast

×

Almanac

Astronomy

Jun. 03, 2015 Rise Set
Actual Time
Civil Twilight
Nautical Twilight
Astronomical Twilight
Moon
Length of Visible Light
Length of Day
Tomorrow will be .
, % of the Moon is Illuminated

Today's Extremes

State Highs State Lows

Community

WunderPhotos

Upload Photos

1,826,270 photos uploaded!

WunderBlogs® & News

Nearby

Air Quality

  Air Quality AQ Index Pollutant
Not available.

Snow Depth

Station Depth Elevation

Earthquake Activity

City Distance Mag. Time & Date
Minimum magnitude displayed is 2.5.

Coastal Water Temperatures

Place Temperature

Stations

Nearby Weather Stations

Station Location Temp. Windchill Dew Point Humidity Wind Precip. Elev Updated Type